Time;durP1;ratioP1;P1;durP2;ratioP2;P2;SDS_P1;SDS_P2;PMS_P1;PMS_P2;Temp;Humidity;BMP_temperature;BMP_pressure;BME280_temperature;BME280_humidity;BME280_pressure;Samples;Min_cycle;Max_cycle;Signal;HPM_P1;HPM_P2
2022/12/20 00:00:04;;;;;;;;;9.50;9.25;;;;;12.26;65.73;101364.09;2433502;28;45182;-89
2022/12/20 00:01:17;;;;;;;;;8.50;6.75;;;;;12.26;65.52;101369.38;2431171;28;48023;-90
2022/12/20 00:02:27;;;;;;;;;9.00;9.00;;;;;12.26;65.60;101374.66;2423947;28;45301;-90
2022/12/20 00:03:39;;;;;;;;;12.75;9.00;;;;;12.28;65.69;101375.47;2432558;28;46784;-89
2022/12/20 00:04:50;;;;;;;;;10.00;10.00;;;;;12.28;65.72;101375.47;2441659;28;45242;-90
2022/12/20 00:06:00;;;;;;;;;10.50;8.50;;;;;12.29;65.47;101373.69;2430639;28;48329;-90
2022/12/20 00:07:10;;;;;;;;;9.00;9.00;;;;;12.30;65.53;101373.63;2433727;28;45243;-91
2022/12/20 00:08:21;;;;;;;;;6.00;6.00;;;;;12.31;65.77;101370.09;2441581;28;46514;-90
2022/12/20 00:09:31;;;;;;;;;10.00;8.50;;;;;12.31;65.36;101370.09;2429498;28;45292;-90
2022/12/20 00:10:43;;;;;;;;;11.25;10.00;;;;;12.33;65.24;101373.56;2423535;28;48612;-89
2022/12/20 00:11:54;;;;;;;;;7.50;7.50;;;;;12.33;65.43;101368.28;2432529;28;45632;-90
2022/12/20 00:13:05;;;;;;;;;9.25;8.00;;;;;12.33;65.28;101360.38;2439284;28;47991;-91
2022/12/20 00:14:16;;;;;;;;;10.25;8.75;;;;;12.33;65.23;101363.00;2431144;28;45300;-90
2022/12/20 00:15:26;;;;;;;;;8.00;8.00;;;;;12.34;65.26;101362.13;2424036;28;47902;-89
2022/12/20 00:16:37;;;;;;;;;12.25;8.25;;;;;12.35;65.43;101358.56;2424174;28;45336;-90
2022/12/20 00:17:47;;;;;;;;;7.50;7.50;;;;;12.36;65.14;101356.78;2433657;28;45431;-90
2022/12/20 00:19:01;;;;;;;;;7.50;7.50;;;;;12.36;65.24;101351.50;2440884;28;45185;-89
2022/12/20 00:20:11;;;;;;;;;6.75;6.75;;;;;12.36;65.34;101346.25;2430336;28;47073;-90
2022/12/20 00:21:22;;;;;;;;;7.75;7.75;;;;;12.36;64.97;101351.50;2434176;28;45252;-89
2022/12/20 00:22:32;;;;;;;;;8.75;5.50;;;;;12.35;65.03;101355.91;2441462;28;46349;-90
2022/12/20 00:23:42;;;;;;;;;10.25;8.25;;;;;12.37;65.19;101347.97;2441675;28;45215;-90
2022/12/20 00:24:53;;;;;;;;;10.25;8.00;;;;;12.38;65.31;101349.69;2441418;28;46354;-90
2022/12/20 00:26:07;;;;;;;;;10.25;7.00;;;;;12.37;65.37;101345.34;2431093;28;45303;-90
2022/12/20 00:27:17;;;;;;;;;12.75;11.00;;;;;12.38;65.43;101341.78;2434351;28;45458;-90
2022/12/20 00:28:28;;;;;;;;;9.50;6.50;;;;;12.40;65.16;101334.69;2431115;28;45227;-90
2022/12/20 00:29:38;;;;;;;;;9.00;7.25;;;;;12.42;65.46;101339.94;2423086;28;47063;-90
2022/12/20 00:30:53;;;;;;;;;8.00;7.25;;;;;12.41;64.97;101343.47;2433729;28;45387;-90
2022/12/20 00:32:03;;;;;;;;;7.50;7.50;;;;;12.42;65.16;101338.13;2430931;28;47921;-91
2022/12/20 00:33:13;;;;;;;;;9.00;8.00;;;;;12.41;64.96;101344.31;2423892;28;45293;-90
2022/12/20 00:34:24;;;;;;;;;9.75;7.25;;;;;12.41;64.91;101346.09;2423751;28;47074;-90
2022/12/20 00:35:34;;;;;;;;;9.25;6.75;;;;;12.43;64.87;101344.28;2424087;28;45249;-90
2022/12/20 00:36:44;;;;;;;;;8.75;7.25;;;;;12.42;65.36;101348.66;2432484;28;47624;-90
2022/12/20 00:37:55;;;;;;;;;8.50;7.25;;;;;12.42;64.96;101345.19;2430867;28;44810;-90
2022/12/20 00:39:05;;;;;;;;;9.25;7.75;;;;;12.42;65.09;101345.19;2430955;28;45552;-90
2022/12/20 00:40:16;;;;;;;;;9.00;7.75;;;;;12.41;64.91;101341.69;2439305;28;45162;-90
2022/12/20 00:41:29;;;;;;;;;8.75;8.50;;;;;12.42;64.86;101346.03;2441276;28;46116;-91
2022/12/20 00:42:39;;;;;;;;;7.50;7.25;;;;;12.42;64.85;101343.41;2441594;28;45236;-91
2022/12/20 00:43:50;;;;;;;;;9.25;7.50;;;;;12.41;65.05;101351.38;2441364;28;45145;-91
2022/12/20 00:45:01;;;;;;;;;7.75;6.75;;;;;12.41;64.94;101346.97;2430182;28;45225;-90
2022/12/20 00:46:13;;;;;;;;;8.00;8.00;;;;;12.43;64.90;101346.91;2433787;28;46225;-90
2022/12/20 00:47:24;;;;;;;;;7.25;7.00;;;;;12.41;65.01;101339.06;2430230;28;45161;-91
2022/12/20 00:48:34;;;;;;;;;8.50;8.50;;;;;12.41;64.92;101336.41;2433627;28;45586;-91
2022/12/20 00:49:44;;;;;;;;;10.25;7.50;;;;;12.42;64.84;101338.13;2426268;28;45237;-91
2022/12/20 00:51:26;;;;;;;;;8.75;7.75;;;;;12.44;65.00;101346.00;2414186;28;47287;-91
2022/12/20 00:52:36;;;;;;;;;8.25;8.25;;;;;12.44;65.01;101341.59;2409343;28;45308;-92
2022/12/20 00:53:47;;;;;;;;;11.50;7.75;;;;;12.43;64.92;101333.72;2424335;28;45562;-91
2022/12/20 00:54:57;;;;;;;;;11.75;8.00;;;;;12.44;64.80;101332.81;2421404;28;44804;-91
2022/12/20 00:56:08;;;;;;;;;8.25;7.50;;;;;12.45;65.01;101334.53;2423950;28;45388;-92
2022/12/20 00:57:18;;;;;;;;;9.75;8.00;;;;;12.44;64.72;101338.09;2420299;28;45653;-91
2022/12/20 00:58:31;;;;;;;;;7.50;7.50;;;;;12.44;64.78;101335.47;2406893;28;47201;-91
2022/12/20 00:59:42;;;;;;;;;8.50;8.50;;;;;12.44;65.13;101335.47;2418632;28;45318;-92
2022/12/20 01:00:53;;;;;;;;;9.50;7.75;;;;;12.42;64.75;101324.94;2428042;28;48000;-92
2022/12/20 01:02:03;;;;;;;;;9.50;9.00;;;;;12.42;65.02;101322.31;2421700;28;44631;-91
2022/12/20 01:03:14;;;;;;;;;10.75;8.25;;;;;12.45;64.94;101334.53;2417415;28;47047;-92
2022/12/20 01:04:24;;;;;;;;;7.50;7.50;;;;;12.43;65.07;101331.09;2414404;28;44679;-92
2022/12/20 01:05:35;;;;;;;;;10.50;7.50;;;;;12.45;64.97;101334.53;2414098;28;47536;-92
2022/12/20 01:06:45;;;;;;;;;9.25;8.00;;;;;12.43;64.76;101328.44;2413874;28;45423;-91
2022/12/20 01:07:55;;;;;;;;;6.75;6.75;;;;;12.45;64.91;101334.53;2423795;28;47158;-92
2022/12/20 01:09:06;;;;;;;;;5.50;5.50;;;;;12.45;64.82;101334.53;2431170;28;45331;-91
2022/12/20 01:10:17;;;;;;;;;7.00;6.75;;;;;12.43;64.73;101336.34;2421008;28;47954;-91
2022/12/20 01:11:30;;;;;;;;;10.00;8.75;;;;;12.46;64.81;101325.72;2414319;28;44731;-92
2022/12/20 01:12:40;;;;;;;;;7.50;7.50;;;;;12.44;64.88;101324.91;2414669;28;47603;-92
2022/12/20 01:13:54;;;;;;;;;7.25;7.25;;;;;12.45;64.59;101324.84;2413939;28;45183;-92
2022/12/20 01:15:06;;;;;;;;;9.75;7.25;;;;;12.45;64.88;101324.00;2419112;28;47583;-91
2022/12/20 01:16:23;;;;;;;;;7.00;6.75;;;;;12.44;64.92;101320.50;2413322;28;45417;-93
2022/12/20 01:17:34;;;;;;;;;9.75;7.25;;;;;12.45;64.77;101321.34;2414556;28;47352;-92
2022/12/20 01:18:44;;;;;;;;;7.25;6.50;;;;;12.46;64.82;101329.22;2413535;28;45370;-92
2022/12/20 01:19:55;;;;;;;;;7.75;7.75;;;;;12.46;64.87;101331.88;2414004;28;47209;-92
2022/12/20 01:21:08;;;;;;;;;7.75;7.25;;;;;12.45;64.58;101331.91;2413330;28;45430;-92
2022/12/20 01:22:19;;;;;;;;;11.50;8.00;;;;;12.44;64.27;101327.56;2414702;28;47374;-92
2022/12/20 01:23:29;;;;;;;;;8.75;8.25;;;;;12.44;64.79;101341.59;2424265;28;45264;-92
2022/12/20 01:24:40;;;;;;;;;8.00;6.25;;;;;12.44;64.53;101336.34;2420952;28;47295;-92
2022/12/20 01:25:50;;;;;;;;;6.00;5.25;;;;;12.45;64.51;101337.16;2421298;28;45202;-93
2022/12/20 01:27:00;;;;;;;;;8.00;7.25;;;;;12.45;64.91;101343.31;2423878;28;45229;-92
2022/12/20 01:28:11;;;;;;;;;10.50;8.00;;;;;12.46;64.99;101338.91;2421053;28;44730;-92
2022/12/20 01:29:21;;;;;;;;;7.75;7.50;;;;;12.44;64.40;101325.78;2413482;28;48075;-92
2022/12/20 01:30:32;;;;;;;;;9.75;8.00;;;;;12.44;64.91;101328.44;2423943;28;45275;-92
2022/12/20 01:31:42;;;;;;;;;9.75;7.25;;;;;12.45;64.77;101332.75;2421120;28;47300;-92
2022/12/20 01:32:53;;;;;;;;;6.25;6.00;;;;;12.45;64.71;101326.63;2422896;28;45396;-92
2022/12/20 01:34:04;;;;;;;;;8.25;8.00;;;;;12.45;64.78;101324.00;2430972;28;45269;-92
2022/12/20 01:35:14;;;;;;;;;7.50;7.50;;;;;12.45;64.67;101324.00;2420608;28;44846;-92
2022/12/20 01:36:28;;;;;;;;;8.00;7.75;;;;;12.43;64.96;101315.28;2414301;28;47168;-92
2022/12/20 01:37:39;;;;;;;;;7.25;5.75;;;;;12.42;64.58;101321.47;2414712;28;45314;-91
2022/12/20 01:38:50;;;;;;;;;7.75;7.75;;;;;12.44;64.74;101323.16;2413332;28;47385;-91
2022/12/20 01:40:00;;;;;;;;;8.75;7.75;;;;;12.42;64.86;101319.66;2423964;28;44637;-92
2022/12/20 01:41:17;;;;;;;;;10.25;7.75;;;;;12.42;64.96;101316.19;2419570;28;45955;-92
2022/12/20 01:42:27;;;;;;;;;10.75;6.50;;;;;12.40;65.12;101326.78;2414914;28;45371;-92
2022/12/20 01:43:44;;;;;;;;;11.50;7.75;;;;;12.41;64.67;101325.88;2414020;28;47163;-92
2022/12/20 01:44:57;;;;;;;;;9.75;8.00;;;;;12.40;64.84;101325.91;2415007;28;45572;-91
2022/12/20 01:46:07;;;;;;;;;9.00;9.00;;;;;12.39;64.79;101322.44;2414291;28;47009;-90
2022/12/20 01:47:18;;;;;;;;;9.75;7.50;;;;;12.40;64.79;101326.78;2423889;28;44781;-91
2022/12/20 01:48:28;;;;;;;;;8.00;6.00;;;;;12.40;65.17;101323.25;2419982;28;47277;-91
2022/12/20 01:49:47;;;;;;;;;8.25;8.25;;;;;12.39;65.22;101327.69;2427097;28;44714;-92
2022/12/20 01:50:58;;;;;;;;;7.25;7.25;;;;;12.40;64.87;101325.91;2430365;28;48235;-92
2022/12/20 01:52:23;;;;;;;;;9.00;7.25;;;;;12.40;64.82;101324.13;2433611;28;45337;-92
2022/12/20 01:53:33;;;;;;;;;7.25;7.25;;;;;12.38;65.02;101318.91;2441013;28;46656;-91
2022/12/20 01:55:00;;;;;;;;;10.25;6.75;;;;;12.40;65.09;101316.22;2430620;28;45284;-92
2022/12/20 01:56:11;;;;;;;;;7.00;5.50;;;;;12.38;65.03;101323.31;2426744;28;47864;-91
2022/12/20 01:57:28;;;;;;;;;6.50;5.50;;;;;12.40;65.01;101323.25;2425327;28;45182;-91
2022/12/20 01:58:39;;;;;;;;;9.00;9.00;;;;;12.39;64.80;101325.06;2434960;28;47283;-92
2022/12/20 01:59:52;;;;;;;;;7.50;6.75;;;;;12.40;65.19;101328.53;2432303;28;45249;-91
2022/12/20 02:01:02;;;;;;;;;11.00;6.50;;;;;12.40;64.73;101325.91;2425387;28;47253;-92
2022/12/20 02:02:12;;;;;;;;;7.00;7.00;;;;;12.41;65.33;101317.09;2425182;28;45219;-92
2022/12/20 02:03:24;;;;;;;;;6.75;6.75;;;;;12.41;65.16;101322.38;2434714;28;46322;-92
2022/12/20 02:04:34;;;;;;;;;8.50;8.50;;;;;12.41;65.20;101323.25;2432096;28;45261;-91
2022/12/20 02:05:45;;;;;;;;;9.00;9.00;;;;;12.41;64.99;101322.38;2431143;28;46903;-92
2022/12/20 02:06:56;;;;;;;;;7.50;7.50;;;;;12.40;64.85;101316.22;2434647;28;45493;-92
2022/12/20 02:08:09;;;;;;;;;6.25;6.25;;;;;12.43;64.85;101323.19;2429096;28;47328;-91
2022/12/20 02:09:20;;;;;;;;;7.00;7.00;;;;;12.42;64.84;101329.38;2430284;28;45288;-92
2022/12/20 02:10:53;;;;;;;;;7.75;7.00;;;;;12.42;64.62;101329.38;2432067;28;47174;-92
2022/12/20 02:12:13;;;;;;;;;6.25;6.25;;;;;12.42;64.95;101324.09;2418456;28;45442;-91
2022/12/20 02:13:39;;;;;;;;;8.50;6.50;;;;;12.41;65.04;101328.50;2432109;28;46466;-91
2022/12/20 02:15:16;;;;;;;;;6.75;5.50;;;;;12.44;64.91;101330.19;2427361;28;45327;-93
2022/12/20 02:16:33;;;;;;;;;6.25;4.75;;;;;12.42;64.58;101324.09;2422090;28;48647;-91
2022/12/20 02:18:04;;;;;;;;;6.50;6.50;;;;;12.42;64.63;101316.19;2424995;28;45259;-92
2022/12/20 02:19:35;;;;;;;;;6.00;5.25;;;;;12.43;64.81;101317.91;2440619;28;45378;-91
2022/12/20 02:20:56;;;;;;;;;7.50;7.50;;;;;12.43;65.01;101323.19;2432018;28;45392;-91
2022/12/20 02:22:24;;;;;;;;;8.50;5.50;;;;;12.43;64.91;101325.81;2426518;28;46977;-91
2022/12/20 02:23:55;;;;;;;;;6.75;6.75;;;;;12.42;64.68;101319.66;2427697;28;44697;-91
2022/12/20 02:25:31;;;;;;;;;7.00;6.25;;;;;12.42;64.63;101319.66;2426781;28;46906;-92
2022/12/20 02:26:59;;;;;;;;;7.00;6.75;;;;;12.42;64.63;101318.84;2438900;28;45246;-92
2022/12/20 02:28:16;;;;;;;;;6.75;6.75;;;;;12.43;64.64;101315.28;2431344;28;48166;-91
2022/12/20 02:29:44;;;;;;;;;7.25;7.25;;;;;12.42;64.77;101313.56;2425986;28;45256;-92
2022/12/20 02:30:57;;;;;;;;;6.50;6.25;;;;;12.42;64.76;101314.41;2427408;28;47335;-91
2022/12/20 02:32:16;;;;;;;;;8.00;5.75;;;;;12.42;64.76;101313.56;2420519;28;45266;-90
2022/12/20 02:33:27;;;;;;;;;6.75;6.75;;;;;12.41;64.74;101302.16;2428968;28;45442;-91
2022/12/20 02:34:39;;;;;;;;;8.75;8.25;;;;;12.41;64.68;101304.78;2430101;28;45376;-90
2022/12/20 02:35:49;;;;;;;;;6.50;6.50;;;;;12.41;64.56;101302.16;2425152;28;48409;-93
2022/12/20 02:36:59;;;;;;;;;11.25;7.50;;;;;12.42;64.62;101303.03;2426702;28;45263;-92
2022/12/20 02:38:43;;;;;;;;;8.75;7.00;;;;;12.40;64.63;101310.97;2425193;28;46318;-92
2022/12/20 02:39:54;;;;;;;;;7.25;7.25;;;;;12.40;64.64;101304.81;2384059;28;45307;-91
2022/12/20 02:41:11;;;;;;;;;8.00;7.50;;;;;12.38;64.67;101303.09;2417041;28;47255;-91
2022/12/20 02:42:25;;;;;;;;;9.75;6.75;;;;;12.37;64.70;101297.91;2436054;28;45292;-91
2022/12/20 02:45:18;;;;;;;;;8.25;7.00;;;;;12.37;64.62;101301.38;2437316;28;45251;-91
2022/12/20 02:46:31;;;;;;;;;5.00;4.75;;;;;12.35;64.90;101297.91;2441320;28;48411;-91
2022/12/20 02:47:58;;;;;;;;;6.50;6.50;;;;;12.35;64.67;101292.66;2431582;28;45259;-92
2022/12/20 02:49:13;;;;;;;;;7.75;5.50;;;;;12.32;64.70;101298.00;2420891;28;46180;-92
2022/12/20 02:50:31;;;;;;;;;7.50;5.75;;;;;12.33;64.63;101302.38;2418996;28;44720;-92
2022/12/20 02:51:45;;;;;;;;;9.75;6.50;;;;;12.32;64.66;101297.16;2417160;28;45296;-92
2022/12/20 02:52:56;;;;;;;;;7.25;7.25;;;;;12.30;64.90;101302.47;2421216;28;45254;-91
2022/12/20 02:54:06;;;;;;;;;6.00;6.00;;;;;12.30;64.35;101294.56;2434393;28;45558;-90
2022/12/20 02:55:18;;;;;;;;;6.00;6.00;;;;;12.30;64.33;101286.66;2431368;28;45399;-91
2022/12/20 02:56:37;;;;;;;;;5.25;3.75;;;;;12.30;64.65;101277.91;2424257;28;48077;-91
2022/12/20 02:58:14;;;;;;;;;8.25;6.50;;;;;12.27;64.55;101268.31;2431177;28;44900;-92
2022/12/20 02:59:30;;;;;;;;;7.25;6.25;;;;;12.26;64.74;101263.94;2428144;28;47933;-91
2022/12/20 03:00:45;;;;;;;;;7.50;5.50;;;;;12.26;64.54;101267.47;2435799;28;45256;-91
2022/12/20 03:01:56;;;;;;;;;5.75;5.50;;;;;12.25;64.60;101260.44;2430619;28;47120;-93
2022/12/20 03:03:22;;;;;;;;;4.50;4.50;;;;;12.25;64.57;101259.56;2434610;28;44677;-91
2022/12/20 03:04:38;;;;;;;;;6.25;6.25;;;;;12.24;64.72;101264.00;2431813;28;46159;-92
2022/12/20 03:05:51;;;;;;;;;5.75;5.25;;;;;12.23;64.57;101261.41;2416051;28;45260;-91
2022/12/20 03:07:06;;;;;;;;;7.50;4.75;;;;;12.22;64.67;101259.69;2422571;28;47896;-92
2022/12/20 03:08:16;;;;;;;;;6.00;6.00;;;;;12.21;64.91;101257.97;2434538;28;45254;-91
2022/12/20 03:09:29;;;;;;;;;6.25;5.00;;;;;12.20;64.53;101258.91;2431531;28;46415;-92
2022/12/20 03:10:40;;;;;;;;;6.75;5.00;;;;;12.20;64.54;101261.53;2435166;28;45177;-91
2022/12/20 03:11:52;;;;;;;;;4.75;4.50;;;;;12.19;64.63;101265.94;2430691;28;47067;-92
2022/12/20 03:13:02;;;;;;;;;5.50;4.75;;;;;12.18;64.67;101260.69;2424930;28;45318;-91
2022/12/20 03:14:13;;;;;;;;;6.00;5.25;;;;;12.17;64.48;101258.97;2424774;28;47794;-93
2022/12/20 03:15:23;;;;;;;;;5.50;5.50;;;;;12.15;64.95;101259.00;2424747;28;45317;-92
2022/12/20 03:16:34;;;;;;;;;8.00;6.00;;;;;12.13;64.36;101256.44;2434159;28;47192;-92
2022/12/20 03:17:44;;;;;;;;;4.00;4.00;;;;;12.14;64.61;101252.91;2431585;28;44700;-91
2022/12/20 03:18:55;;;;;;;;;4.50;4.25;;;;;12.13;64.78;101251.16;2427695;28;47771;-92
2022/12/20 03:20:06;;;;;;;;;6.75;5.50;;;;;12.13;64.73;101245.88;2438482;28;45271;-91
2022/12/20 03:21:16;;;;;;;;;4.00;4.00;;;;;12.13;64.88;101250.28;2431531;28;47376;-92
2022/12/20 03:22:27;;;;;;;;;4.75;4.25;;;;;12.13;64.50;101256.44;2424809;28;45194;-92
2022/12/20 03:23:37;;;;;;;;;6.00;4.50;;;;;12.14;64.61;101254.66;2424628;28;47953;-93
2022/12/20 03:24:48;;;;;;;;;3.00;3.00;;;;;12.11;64.56;101258.22;2424689;28;45248;-92
2022/12/20 03:25:59;;;;;;;;;3.50;3.50;;;;;12.12;64.58;101259.94;2431693;28;47052;-91
2022/12/20 03:27:10;;;;;;;;;4.50;4.25;;;;;12.12;64.55;101259.94;2424823;28;45281;-93
2022/12/20 03:28:20;;;;;;;;;4.25;3.25;;;;;12.12;64.80;101257.28;2428518;28;47045;-93
2022/12/20 03:29:30;;;;;;;;;5.00;5.00;;;;;12.13;64.69;101256.44;2439876;28;45246;-92
2022/12/20 03:30:41;;;;;;;;;5.50;5.50;;;;;12.13;64.64;101255.56;2431598;28;47246;-91
2022/12/20 03:31:51;;;;;;;;;4.50;3.25;;;;;12.13;64.57;101266.97;2431510;28;45243;-92
2022/12/20 03:33:02;;;;;;;;;3.50;3.50;;;;;12.14;64.32;101262.56;2424327;28;47926;-92
2022/12/20 03:34:12;;;;;;;;;4.75;4.75;;;;;12.15;64.72;101259.00;2424654;28;45282;-91
2022/12/20 03:35:22;;;;;;;;;5.50;4.50;;;;;12.15;64.54;101259.00;2424315;28;46940;-92
2022/12/20 03:36:33;;;;;;;;;7.25;3.50;;;;;12.15;64.52;101253.75;2434638;28;45487;-92
2022/12/20 03:37:43;;;;;;;;;4.00;4.00;;;;;12.14;64.59;101250.25;2441873;28;45247;-92
2022/12/20 03:38:54;;;;;;;;;4.75;4.25;;;;;12.13;64.27;101251.16;2430169;28;45470;-92
2022/12/20 03:40:05;;;;;;;;;6.25;5.50;;;;;12.15;64.43;101254.59;2434091;28;45797;-92
2022/12/20 03:41:16;;;;;;;;;4.25;4.25;;;;;12.14;64.62;101252.91;2441977;28;44682;-92
2022/12/20 03:42:26;;;;;;;;;5.50;4.00;;;;;12.13;64.77;101256.44;2431455;28;47348;-92
2022/12/20 03:43:37;;;;;;;;;5.50;4.00;;;;;12.14;64.28;101255.53;2434318;28;45325;-92
2022/12/20 03:44:47;;;;;;;;;6.25;4.50;;;;;12.13;64.52;101253.78;2441093;28;48033;-92
2022/12/20 03:45:57;;;;;;;;;3.75;3.75;;;;;12.13;64.42;101255.56;2430635;28;45237;-92
2022/12/20 03:47:08;;;;;;;;;5.75;4.75;;;;;12.14;64.37;101260.81;2424549;28;48143;-92
2022/12/20 03:48:18;;;;;;;;;5.00;3.50;;;;;12.13;64.46;101256.44;2434191;28;45450;-92
2022/12/20 03:49:29;;;;;;;;;9.50;6.00;;;;;12.13;64.36;101266.09;2441604;28;45390;-92
2022/12/20 03:50:40;;;;;;;;;4.00;4.00;;;;;12.13;64.51;101264.34;2431530;28;45253;-92
2022/12/20 03:51:50;;;;;;;;;8.75;7.75;;;;;12.12;64.48;101259.09;2434336;28;45289;-91
2022/12/20 03:53:01;;;;;;;;;10.00;8.00;;;;;12.11;64.42;101252.09;2441927;28;45236;-92
2022/12/20 03:54:11;;;;;;;;;8.50;7.00;;;;;12.10;64.50;101256.50;2431036;28;47850;-91
2022/12/20 03:55:22;;;;;;;;;6.25;4.50;;;;;12.10;64.14;101253.84;2424640;28;44613;-92
2022/12/20 03:56:33;;;;;;;;;6.00;5.50;;;;;12.09;64.50;101257.41;2419181;28;46903;-92
2022/12/20 03:57:43;;;;;;;;;4.50;4.50;;;;;12.09;64.52;101254.78;2416176;28;45258;-91
2022/12/20 03:58:53;;;;;;;;;7.25;5.50;;;;;12.09;64.61;101249.50;2433984;28;48123;-92
2022/12/20 04:00:05;;;;;;;;;7.25;6.50;;;;;12.10;64.73;101253.00;2431285;28;44634;-92
2022/12/20 04:01:24;;;;;;;;;5.50;5.50;;;;;12.08;64.68;101250.41;2424410;28;47113;-92
2022/12/20 04:02:35;;;;;;;;;6.75;6.50;;;;;12.07;64.62;101253.97;2425212;28;45537;-92
2022/12/20 04:03:45;;;;;;;;;6.00;5.25;;;;;12.07;64.36;101239.94;2424275;28;47073;-92
2022/12/20 04:04:55;;;;;;;;;6.50;5.50;;;;;12.06;64.60;101246.97;2434020;28;45533;-91
2022/12/20 04:06:06;;;;;;;;;5.50;5.50;;;;;12.06;64.96;101246.97;2430820;28;47007;-92
2022/12/20 04:07:16;;;;;;;;;5.25;4.50;;;;;12.07;64.50;101247.84;2424272;28;44782;-92
2022/12/20 04:08:27;;;;;;;;;4.00;4.00;;;;;12.06;64.47;101254.00;2434145;28;45314;-92
2022/12/20 04:09:37;;;;;;;;;8.50;6.25;;;;;12.06;64.69;101244.31;2441552;28;45398;-91
2022/12/20 04:12:17;;;;;;;;;7.25;5.00;;;;;12.03;64.62;101244.41;2435845;28;45834;-92
2022/12/20 04:13:27;;;;;;;;;7.00;4.25;;;;;12.01;64.75;101236.56;2441589;28;46402;-92
2022/12/20 04:14:37;;;;;;;;;5.25;5.25;;;;;12.02;64.97;101238.31;2430682;28;45356;-91
2022/12/20 04:15:48;;;;;;;;;4.25;4.25;;;;;12.02;64.51;101237.44;2423714;28;47073;-93
2022/12/20 04:16:58;;;;;;;;;5.25;4.25;;;;;12.01;64.50;101230.44;2424314;28;45422;-92
2022/12/20 04:18:08;;;;;;;;;7.50;6.50;;;;;12.00;64.59;101226.94;2423265;28;47048;-92
2022/12/20 04:19:19;;;;;;;;;5.50;5.50;;;;;12.01;64.34;101226.03;2431519;28;45435;-92
2022/12/20 04:20:29;;;;;;;;;6.25;5.00;;;;;12.01;64.77;101225.16;2441345;28;46253;-92
2022/12/20 04:21:40;;;;;;;;;5.00;4.50;;;;;12.00;64.57;101226.09;2431175;28;45221;-92
2022/12/20 04:22:51;;;;;;;;;4.50;4.25;;;;;12.00;64.81;101228.72;2424239;28;47375;-91
2022/12/20 04:24:03;;;;;;;;;6.50;4.50;;;;;11.99;64.61;101221.72;2434471;28;45233;-92
2022/12/20 04:25:15;;;;;;;;;6.25;6.25;;;;;11.99;64.64;101214.69;2431147;28;48299;-91
2022/12/20 04:26:26;;;;;;;;;6.00;4.75;;;;;11.98;64.56;101214.72;2423798;28;45419;-92
2022/12/20 04:27:37;;;;;;;;;3.00;2.50;;;;;11.98;64.51;101220.84;2423987;28;47524;-92
2022/12/20 04:28:47;;;;;;;;;6.50;6.50;;;;;11.97;64.54;101207.75;2424371;28;45166;-92
2022/12/20 04:29:57;;;;;;;;;4.25;4.25;;;;;11.98;64.57;101209.44;2434109;28;45532;-91
2022/12/20 04:31:09;;;;;;;;;5.25;3.75;;;;;11.97;64.56;101203.34;2431108;28;44798;-92
2022/12/20 04:32:19;;;;;;;;;5.00;4.25;;;;;11.98;64.72;101201.53;2423978;28;46391;-91
2022/12/20 04:33:30;;;;;;;;;5.00;3.25;;;;;11.98;64.70;101201.53;2423866;28;45238;-91
2022/12/20 04:34:40;;;;;;;;;3.50;3.50;;;;;11.98;64.65;101204.19;2421118;28;47135;-92
2022/12/20 04:35:51;;;;;;;;;3.50;3.50;;;;;11.99;64.77;101204.16;2424344;28;45265;-92
2022/12/20 04:37:01;;;;;;;;;3.75;3.25;;;;;11.97;64.73;101205.97;2423938;28;46882;-91
2022/12/20 04:38:11;;;;;;;;;4.50;4.00;;;;;11.98;64.61;101205.03;2424271;28;45686;-92
2022/12/20 04:39:22;;;;;;;;;4.25;3.50;;;;;11.97;64.70;101207.75;2430801;28;47142;-92
2022/12/20 04:40:32;;;;;;;;;4.00;4.00;;;;;11.98;64.60;101204.19;2434241;28;44757;-91
2022/12/20 04:41:42;;;;;;;;;5.50;2.50;;;;;11.97;64.69;101208.59;2430199;28;47221;-90
2022/12/20 04:42:53;;;;;;;;;3.50;3.50;;;;;11.98;64.89;101207.69;2424324;28;45150;-92
2022/12/20 04:44:03;;;;;;;;;4.25;4.25;;;;;11.98;64.61;101212.06;2434105;28;45248;-92
2022/12/20 04:45:14;;;;;;;;;5.00;3.75;;;;;11.96;64.55;101211.28;2431093;28;45236;-91
2022/12/20 04:46:25;;;;;;;;;5.25;4.50;;;;;11.98;64.80;101212.94;2423797;28;47762;-92
2022/12/20 04:47:36;;;;;;;;;3.00;2.75;;;;;11.97;64.65;101219.16;2424209;28;45308;-92
2022/12/20 04:48:46;;;;;;;;;3.50;3.50;;;;;11.98;64.42;101214.72;2430880;28;48039;-93
2022/12/20 04:49:56;;;;;;;;;3.75;3.25;;;;;11.99;64.83;101221.72;2433890;28;44866;-93
2022/12/20 04:51:07;;;;;;;;;5.25;2.75;;;;;11.99;64.78;101214.69;2427618;28;47235;-92
2022/12/20 04:53:46;;;;;;;;;5.50;4.00;;;;;12.01;64.62;101214.63;2436766;28;45422;-92
2022/12/20 04:54:57;;;;;;;;;3.25;3.25;;;;;12.00;64.88;101216.38;2430965;28;44773;-92
2022/12/20 04:56:08;;;;;;;;;3.00;3.00;;;;;12.02;64.28;101216.38;2423809;28;47373;-92
2022/12/20 04:57:18;;;;;;;;;5.25;4.25;;;;;12.00;64.44;101203.22;2430969;28;45292;-90
2022/12/20 04:58:29;;;;;;;;;3.50;3.50;;;;;12.03;64.32;101210.16;2423660;28;47430;-91
2022/12/20 04:59:40;;;;;;;;;0.50;0.50;;;;;12.04;64.54;101214.53;2423911;28;45237;-91
2022/12/20 05:00:51;;;;;;;;;4.75;4.50;;;;;12.04;64.72;101217.16;2423826;28;48067;-90
2022/12/20 05:02:01;;;;;;;;;5.50;3.50;;;;;12.04;64.48;101214.53;2433979;28;45269;-91
2022/12/20 05:03:11;;;;;;;;;2.50;2.50;;;;;12.06;64.24;101217.97;2431163;28;48131;-92
2022/12/20 05:04:22;;;;;;;;;3.50;3.50;;;;;12.05;64.46;101213.59;2423735;28;45226;-91
2022/12/20 05:05:32;;;;;;;;;3.50;3.50;;;;;12.06;64.21;101217.13;2428419;28;48266;-91
2022/12/20 05:06:43;;;;;;;;;3.75;3.75;;;;;12.09;64.41;101210.00;2433677;28;44669;-92
2022/12/20 05:07:54;;;;;;;;;3.00;3.00;;;;;12.07;64.51;101217.09;2430623;28;47322;-92
2022/12/20 05:09:04;;;;;;;;;4.50;3.25;;;;;12.10;64.48;101209.06;2422352;28;45230;-92
2022/12/20 05:10:14;;;;;;;;;3.50;3.00;;;;;12.11;64.71;101200.25;2423926;28;48434;-92
2022/12/20 05:11:25;;;;;;;;;6.50;3.00;;;;;12.12;64.43;101201.97;2432969;28;45312;-91
2022/12/20 05:12:35;;;;;;;;;2.50;1.50;;;;;12.14;64.35;101201.97;2430724;28;48310;-92
2022/12/20 05:13:45;;;;;;;;;6.25;3.50;;;;;12.14;64.57;101194.06;2423989;28;44687;-92
2022/12/20 05:14:56;;;;;;;;;3.50;3.50;;;;;12.14;64.74;101187.03;2433701;28;46315;-92
2022/12/20 05:16:07;;;;;;;;;3.25;2.75;;;;;12.17;64.38;101187.84;2430924;28;44710;-92
2022/12/20 05:17:17;;;;;;;;;4.00;3.00;;;;;12.17;64.56;101191.34;2423713;28;47419;-92
2022/12/20 05:18:28;;;;;;;;;2.50;2.50;;;;;12.18;64.16;101190.41;2423217;28;45245;-92
2022/12/20 05:19:38;;;;;;;;;3.50;3.50;;;;;12.19;64.30;101191.28;2423168;28;48076;-91
2022/12/20 05:26:16;;;;;;;;;4.25;3.50;;;;;12.21;64.17;101197.34;2430908;28;44650;-92
2022/12/20 05:26:46;;;;;;;;;5.25;3.50;;;;;12.24;64.28;101181.44;2441471;28;45314;-92
2022/12/20 05:27:57;;;;;;;;;4.25;3.25;;;;;12.23;64.17;101172.66;2430464;28;46125;-91
2022/12/20 05:29:07;;;;;;;;;3.25;3.25;;;;;12.26;64.09;101179.63;2432922;28;45506;-92
2022/12/20 05:30:19;;;;;;;;;4.50;2.25;;;;;12.25;64.13;101173.47;2430623;28;47942;-92
2022/12/20 05:31:29;;;;;;;;;4.50;3.25;;;;;12.27;64.04;101173.44;2424932;28;44770;-92
2022/12/20 05:32:39;;;;;;;;;1.50;1.50;;;;;12.27;63.99;101171.66;2424910;28;47419;-92
2022/12/20 05:33:50;;;;;;;;;6.25;3.75;;;;;12.28;63.91;101172.50;2425609;28;45213;-92
2022/12/20 05:35:00;;;;;;;;;2.50;2.50;;;;;12.28;63.94;101161.97;2425432;28;48263;-92
2022/12/20 05:36:11;;;;;;;;;2.25;2.25;;;;;12.29;63.99;101161.06;2424846;28;45374;-91
2022/12/20 05:37:21;;;;;;;;;4.00;4.00;;;;;12.29;63.88;101163.72;2425285;28;48144;-92
2022/12/20 05:38:31;;;;;;;;;2.50;2.50;;;;;12.33;63.99;101172.34;2424710;28;45227;-91
2022/12/20 05:39:42;;;;;;;;;0.25;0.25;;;;;12.31;63.89;101168.91;2425215;28;47051;-92
2022/12/20 05:40:52;;;;;;;;;5.50;2.75;;;;;12.33;63.75;101173.22;2435615;28;45301;-91
2022/12/20 05:42:03;;;;;;;;;4.25;4.25;;;;;12.35;63.80;101175.81;2430582;28;47938;-92
2022/12/20 05:43:14;;;;;;;;;3.00;2.75;;;;;12.35;63.93;101175.81;2425646;28;45233;-92
2022/12/20 05:44:24;;;;;;;;;3.25;3.25;;;;;12.35;63.80;101170.53;2435362;28;46644;-92
2022/12/20 05:45:35;;;;;;;;;4.75;3.50;;;;;12.36;63.72;101185.44;2432294;28;44713;-91